OOCL Atlanta — VRAR6 — position and weather

sailwx.info

Track history (hours):
 
Tides and Currents Weather Stations Pressure Air Temp Water Temp Dewpoint Dewpoint Depression Visibility Wind Speed Wind Dir Waves Ship Positions

OOCL Atlanta

Last reported at 2017-Sep-11 06:00 UTC. Time now 2017-Sep-24 12:09 UTC.
Position N 07°54' E 077°06'.
Warning: this ship's position is 13 days out of date.

Length 323 m; beam 42.8 m; draft 14.5 m.

Type: Cargo ship. MMSI: 477920300.

Wind from 090 at 8 knots

Barometer 1004.0 mb
Air temperature 26.0 ° C
Visibility: greater than 10.8 NM
Dewpoint 20.2 ° C
Water temperature 29.0 ° C

Date/timePositionNaut miles runAvg speedWind from/ knotsBaromVisibWave heightAir tempDewpointWater temp
2017-Sep-11 06:00N 07°54' E 077°06'56015.5 090 / 81004.010.8 26.020.229.0
2017-Sep-09 18:00N 06°00' E 086°18'41817.4 260 / 191005.010.8 26.021.829.3
2017-Sep-08 18:00N 06°06' E 093°18'20417.0 290 / 141007.010.8 25.019.129.7
2017-Sep-08 06:00N 05°42' E 096°42'47417.6 1007.010.8 29.020.430.9
2017-Sep-07 03:00N 01°20' E 103°17'816.7
2017-Sep-07 02:31N 01°15' E 103°24'1019.2
2017-Sep-07 02:00N 01°12' E 103°33'713.4
2017-Sep-07 01:30N 01°13' E 103°40'510.7
2017-Sep-07 01:00N 01°16' E 103°44'3 5.6
2017-Sep-07 00:30N 01°15' E 103°47'0 0.3
2017-Sep-07 00:00N 01°15' E 103°47'0 0.0
2017-Sep-06 23:24N 01°15' E 103°47'0 0.0
2017-Sep-06 22:54N 01°15' E 103°47'0 0.0
2017-Sep-06 22:30N 01°15' E 103°47'0 0.0
2017-Sep-06 22:00N 01°15' E 103°47'0 0.0
2017-Sep-06 21:27N 01°15' E 103°47'0 0.0
2017-Sep-06 21:00N 01°15' E 103°47'0 0.0
2017-Sep-06 20:30N 01°15' E 103°47'0 0.0
2017-Sep-06 20:00N 01°15' E 103°47'0 0.0
2017-Sep-06 19:30N 01°15' E 103°47'0 0.0
2017-Sep-06 19:00N 01°15' E 103°47'0 0.0
2017-Sep-06 18:21N 01°15' E 103°47'0 0.0
2017-Sep-06 18:00N 01°15' E 103°47'0 0.0
2017-Sep-06 17:27N 01°15' E 103°47'0 0.0
2017-Sep-06 17:00N 01°15' E 103°47'0 0.0
2017-Sep-06 16:30N 01°15' E 103°47'0 0.1
2017-Sep-06 15:57N 01°15' E 103°47'0 0.1
2017-Sep-06 15:30N 01°15' E 103°47'0 0.0
2017-Sep-06 14:57N 01°15' E 103°47'0 0.0
2017-Sep-06 14:30N 01°15' E 103°47'0 0.0
2017-Sep-06 14:00N 01°15' E 103°47'0 0.0
2017-Sep-06 13:30N 01°15' E 103°47'0 0.0
2017-Sep-06 13:00N 01°15' E 103°47'0 0.0
2017-Sep-06 12:30N 01°15' E 103°47'0 0.3
2017-Sep-06 12:00N 01°15' E 103°47'1 1.8
2017-Sep-06 11:30N 01°14' E 103°47'4 8.0
2017-Sep-06 11:00N 01°13' E 103°51'4 7.9
2017-Sep-06 10:30N 01°14' E 103°54'0 0.9
2017-Sep-06 10:01N 01°14' E 103°55'1 1.1
2017-Sep-06 09:30N 01°14' E 103°55'1 2.8
2017-Sep-06 09:00N 01°15' E 103°56'4 7.3
2017-Sep-06 08:31N 01°16' E 103°60'5 8.0
2017-Sep-06 07:55N 01°16' E 104°05'4 7.4
2017-Sep-06 07:21N 01°17' E 104°09'3 7.1
2017-Sep-06 06:59N 01°17' E 104°11'4 6.7
2017-Sep-06 06:25N 01°18' E 104°15'73615.2
2017-Sep-04 06:00N 12°00' E 110°18'65616.1 200 / 191005.010.8 30.023.129.5
2017-Sep-02 13:20N 22°22' E 113°54'310.4
2017-Sep-02 13:00N 22°26' E 113°53'1 0.1
2017-Sep-02 00:03N 22°27' E 113°53'0 2.6
2017-Sep-02 00:00N 22°26' E 113°53'3 5.7
2017-Sep-01 23:30N 22°24' E 113°54'1310.9
2017-Sep-01 22:20N 22°20' E 114°07'1 0.1
2017-Sep-01 09:28N 22°20' E 114°07'  
Track history (hours):
 
Tides and Currents Weather Stations Pressure Air Temp Water Temp Dewpoint Dewpoint Depression Visibility Wind Speed Wind Dir Waves Ship Positions

OOCL Atlanta

Last reported at 2017-Sep-11 06:00 UTC. Time now 2017-Sep-24 12:09 UTC.
Position N 07°54' E 077°06'.
Warning: this ship's position is 13 days out of date.

Length 323 m; beam 42.8 m; draft 14.5 m.

Type: Cargo ship. MMSI: 477920300.

Wind from 090 at 8 knots

Barometer 1004.0 mb
Air temperature 26.0 ° C
Visibility: greater than 10.8 NM
Dewpoint 20.2 ° C
Water temperature 29.0 ° C

Date/timePositionNaut miles runAvg speedWind from/ knotsBaromVisibWave heightAir tempDewpointWater temp
2017-Sep-11 06:00N 07°54' E 077°06'56015.5 090 / 81004.010.8 26.020.229.0
2017-Sep-09 18:00N 06°00' E 086°18'41817.4 260 / 191005.010.8 26.021.829.3
2017-Sep-08 18:00N 06°06' E 093°18'20417.0 290 / 141007.010.8 25.019.129.7
2017-Sep-08 06:00N 05°42' E 096°42'47417.6 1007.010.8 29.020.430.9
2017-Sep-07 03:00N 01°20' E 103°17'816.7
2017-Sep-07 02:31N 01°15' E 103°24'1019.2
2017-Sep-07 02:00N 01°12' E 103°33'713.4
2017-Sep-07 01:30N 01°13' E 103°40'510.7
2017-Sep-07 01:00N 01°16' E 103°44'3 5.6
2017-Sep-07 00:30N 01°15' E 103°47'0 0.3
2017-Sep-07 00:00N 01°15' E 103°47'0 0.0
2017-Sep-06 23:24N 01°15' E 103°47'0 0.0
2017-Sep-06 22:54N 01°15' E 103°47'0 0.0
2017-Sep-06 22:30N 01°15' E 103°47'0 0.0
2017-Sep-06 22:00N 01°15' E 103°47'0 0.0
2017-Sep-06 21:27N 01°15' E 103°47'0 0.0
2017-Sep-06 21:00N 01°15' E 103°47'0 0.0
2017-Sep-06 20:30N 01°15' E 103°47'0 0.0
2017-Sep-06 20:00N 01°15' E 103°47'0 0.0
2017-Sep-06 19:30N 01°15' E 103°47'0 0.0
2017-Sep-06 19:00N 01°15' E 103°47'0 0.0
2017-Sep-06 18:21N 01°15' E 103°47'0 0.0
2017-Sep-06 18:00N 01°15' E 103°47'0 0.0
2017-Sep-06 17:27N 01°15' E 103°47'0 0.0
2017-Sep-06 17:00N 01°15' E 103°47'0 0.0
2017-Sep-06 16:30N 01°15' E 103°47'0 0.1
2017-Sep-06 15:57N 01°15' E 103°47'0 0.1
2017-Sep-06 15:30N 01°15' E 103°47'0 0.0
2017-Sep-06 14:57N 01°15' E 103°47'0 0.0
2017-Sep-06 14:30N 01°15' E 103°47'0 0.0
2017-Sep-06 14:00N 01°15' E 103°47'0 0.0
2017-Sep-06 13:30N 01°15' E 103°47'0 0.0
2017-Sep-06 13:00N 01°15' E 103°47'0 0.0
2017-Sep-06 12:30N 01°15' E 103°47'0 0.3
2017-Sep-06 12:00N 01°15' E 103°47'1 1.8
2017-Sep-06 11:30N 01°14' E 103°47'4 8.0
2017-Sep-06 11:00N 01°13' E 103°51'4 7.9
2017-Sep-06 10:30N 01°14' E 103°54'0 0.9
2017-Sep-06 10:01N 01°14' E 103°55'1 1.1
2017-Sep-06 09:30N 01°14' E 103°55'1 2.8
2017-Sep-06 09:00N 01°15' E 103°56'4 7.3
2017-Sep-06 08:31N 01°16' E 103°60'5 8.0
2017-Sep-06 07:55N 01°16' E 104°05'4 7.4
2017-Sep-06 07:21N 01°17' E 104°09'3 7.1
2017-Sep-06 06:59N 01°17' E 104°11'4 6.7
2017-Sep-06 06:25N 01°18' E 104°15'73615.2
2017-Sep-04 06:00N 12°00' E 110°18'65616.1 200 / 191005.010.8 30.023.129.5
2017-Sep-02 13:20N 22°22' E 113°54'310.4
2017-Sep-02 13:00N 22°26' E 113°53'1 0.1
2017-Sep-02 00:03N 22°27' E 113°53'0 2.6
2017-Sep-02 00:00N 22°26' E 113°53'3 5.7
2017-Sep-01 23:30N 22°24' E 113°54'1310.9
2017-Sep-01 22:20N 22°20' E 114°07'1 0.1
2017-Sep-01 09:28N 22°20' E 114°07'  

Dump ship's entire track history